Archival Weather

Abadan

Abadan, Iran (OIAA)

Report from: Monday, July 18, 2022 5:00 AM UTC
Current time: Tuesday, June 18, 2024 1:21 PM UTC

Current weather – Weather history – Daily summaries
Weather forecast

Temperature35.0°C (95.0°F)
Heat index32.8°C (91.1°F)
Dew point7.0°C (44.6°F)
Winds 8 kts (4.1 m/s, 9.2 mph) Northwest (310°)
Clouds Sky clear
Altimeter29.47 in.Hg (998 mB)
Relative humidity18 %
Density altitude2,928 ft. (892 m)
Remarks Ceiling and visibility OK
Flight conditions Visual Meteorological Conditions
Raw dataOIAA 180500Z 31008KT CAVOK 35/07 Q0998
An error has occurred. This application may no longer respond until reloaded. Reload 🗙